Time;durP1;ratioP1;P1;durP2;ratioP2;P2;SDS_P1;SDS_P2;PMS_P1;PMS_P2;Temp;Humidity;BMP_temperature;BMP_pressure;BME280_temperature;BME280_humidity;BME280_pressure;Samples;Min_cycle;Max_cycle;Signal;HPM_P1;HPM_P2
2024/02/20 00:00:35;;;;;;;28.05;15.68;;;;;;;7.81;78.81;100454.91;5051741;28;20535;-39
2024/02/20 00:03:00;;;;;;;28.90;16.00;;;;;;;7.80;79.21;100451.41;5049430;28;20103;-41
2024/02/20 00:05:26;;;;;;;29.90;16.40;;;;;;;8.01;78.87;100442.09;5031760;28;20492;-41
2024/02/20 00:07:51;;;;;;;29.08;16.45;;;;;;;7.90;78.65;100453.06;5031436;28;20489;-36
2024/02/20 00:10:17;;;;;;;30.52;16.30;;;;;;;7.69;79.75;100448.28;5031586;28;20049;-40
2024/02/20 00:12:42;;;;;;;27.20;15.20;;;;;;;7.92;79.19;100449.25;5031512;28;20533;-40
2024/02/20 00:15:08;;;;;;;29.23;16.90;;;;;;;7.95;78.67;100448.09;5031399;28;20536;-38
2024/02/20 00:17:37;;;;;;;27.90;15.80;;;;;;;8.16;77.67;100440.41;5031421;28;20017;-40
2024/02/20 00:20:08;;;;;;;27.03;15.80;;;;;;;8.19;77.20;100447.22;5031209;28;20113;-39
2024/02/20 00:22:34;;;;;;;23.52;14.15;;;;;;;7.94;77.83;100447.28;5030899;28;20029;-37
2024/02/20 00:24:59;;;;;;;27.58;14.77;;;;;;;7.79;78.59;100441.00;5030633;28;20481;-36
2024/02/20 00:27:26;;;;;;;25.92;14.95;;;;;;;7.87;78.79;100443.63;5030858;28;20080;-38
2024/02/20 00:29:53;;;;;;;25.23;14.25;;;;;;;7.55;79.04;100445.31;5030771;28;20029;-39
2024/02/20 00:32:19;;;;;;;23.80;14.20;;;;;;;7.61;79.83;100439.34;5030109;28;20029;-39
2024/02/20 00:34:47;;;;;;;24.67;14.73;;;;;;;7.96;78.30;100437.31;5030669;28;20097;-39
2024/02/20 00:37:12;;;;;;;24.27;14.50;;;;;;;7.82;78.19;100443.31;5031050;28;20197;-39
2024/02/20 00:39:37;;;;;;;20.90;12.77;;;;;;;7.87;77.82;100427.72;5030858;28;20025;-39
2024/02/20 00:42:03;;;;;;;24.02;12.93;;;;;;;7.79;78.10;100430.41;5030900;28;20185;-37
2024/02/20 00:44:29;;;;;;;24.30;13.68;;;;;;;7.67;78.40;100435.19;5030483;28;20056;-39
2024/02/20 00:46:54;;;;;;;22.38;12.55;;;;;;;7.82;77.71;100430.06;5031018;28;20029;-40
2024/02/20 00:49:19;;;;;;;22.80;13.55;;;;;;;7.82;77.87;100417.66;5031204;28;20512;-37
2024/02/20 00:51:45;;;;;;;21.65;12.80;;;;;;;7.52;78.82;100429.78;5031217;28;20022;-38
2024/02/20 00:54:10;;;;;;;20.75;12.38;;;;;;;7.72;78.71;100426.78;5031106;28;20024;-38
2024/02/20 00:56:36;;;;;;;22.13;13.27;;;;;;;7.63;78.28;100413.53;5031138;28;20025;-40
2024/02/20 00:59:04;;;;;;;22.23;12.60;;;;;;;7.73;78.05;100426.59;5031483;28;20018;-40
2024/02/20 01:01:30;;;;;;;23.70;13.18;;;;;;;7.57;78.34;100411.53;5031550;28;20036;-40
2024/02/20 01:03:55;;;;;;;23.75;12.43;;;;;;;7.73;77.96;100421.31;5030910;28;20045;-40
2024/02/20 01:06:21;;;;;;;20.90;12.27;;;;;;;7.82;77.21;100406.19;5030680;28;20036;-40
2024/02/20 01:08:46;;;;;;;22.02;12.50;;;;;;;7.66;77.51;100409.72;5031089;28;20075;-39
2024/02/20 01:11:12;;;;;;;18.55;11.77;;;;;;;7.77;77.01;100404.06;5030616;28;20465;-38
2024/02/20 01:13:38;;;;;;;19.80;11.52;;;;;;;7.77;77.43;100398.78;5030696;28;20025;-39
2024/02/20 01:16:04;;;;;;;21.98;12.32;;;;;;;7.73;77.36;100399.25;5030518;28;20025;-40
2024/02/20 01:18:29;;;;;;;21.13;12.02;;;;;;;8.01;76.51;100400.53;5031063;28;20029;-40
2024/02/20 01:20:55;;;;;;;18.77;11.55;;;;;;;8.18;74.88;100403.13;5030727;28;20032;-39
2024/02/20 01:23:20;;;;;;;22.58;12.80;;;;;;;7.99;76.12;100396.38;5030766;28;20107;-40
2024/02/20 01:25:46;;;;;;;22.50;12.40;;;;;;;7.99;76.14;100393.75;5030460;28;20088;-40
2024/02/20 01:28:11;;;;;;;20.50;11.40;;;;;;;7.76;76.33;100391.00;5030667;28;20021;-39
2024/02/20 01:30:37;;;;;;;21.40;12.25;;;;;;;7.82;76.83;100385.00;5030505;28;20021;-39
2024/02/20 01:33:02;;;;;;;20.17;11.65;;;;;;;8.00;76.05;100388.28;5030345;28;20400;-40
2024/02/20 01:35:28;;;;;;;20.50;11.95;;;;;;;7.88;76.65;100387.00;5030309;28;20021;-39
2024/02/20 01:37:56;;;;;;;23.83;12.30;;;;;;;7.67;77.01;100384.88;5030506;28;20029;-37
2024/02/20 01:40:22;;;;;;;22.23;12.10;;;;;;;7.89;76.67;100387.81;5030413;28;20026;-38
2024/02/20 01:42:58;;;;;;;20.75;12.32;;;;;;;8.07;76.04;100385.75;5030553;28;20101;-36
2024/02/20 01:45:27;;;;;;;23.40;12.55;;;;;;;8.13;75.49;100389.53;5034224;28;20021;-42
2024/02/20 01:47:52;;;;;;;22.30;12.70;;;;;;;7.91;76.28;100376.03;5042654;28;20048;-39
2024/02/20 01:50:19;;;;;;;24.77;12.35;;;;;;;8.18;75.28;100374.78;5034236;28;20462;-39
2024/02/20 01:52:46;;;;;;;23.48;12.98;;;;;;;8.02;75.75;100377.50;5052192;28;20099;-39
2024/02/20 01:55:12;;;;;;;21.42;13.43;;;;;;;7.74;78.12;100374.44;5054678;28;20108;-39
2024/02/20 01:57:41;;;;;;;22.35;13.27;;;;;;;8.03;76.84;100371.19;5054479;28;20140;-40
2024/02/20 02:00:07;;;;;;;26.02;12.98;;;;;;;7.98;76.69;100365.59;5054389;28;20408;-36
2024/02/20 02:02:33;;;;;;;23.25;13.70;;;;;;;7.92;77.21;100368.91;5054107;28;20484;-37
2024/02/20 02:04:59;;;;;;;26.10;14.85;;;;;;;8.01;76.81;100371.38;5034587;28;20025;-38
2024/02/20 02:07:24;;;;;;;29.10;16.15;;;;;;;8.10;77.40;100374.00;5033861;28;20428;-39
2024/02/20 02:09:50;;;;;;;26.05;14.98;;;;;;;7.88;77.86;100367.59;5033988;28;20115;-39
2024/02/20 02:12:15;;;;;;;30.55;16.48;;;;;;;7.79;78.66;100367.63;5040025;28;20024;-40
2024/02/20 02:14:47;;;;;;;26.90;15.15;;;;;;;7.83;79.07;100368.13;5054179;28;20063;-42
2024/02/20 02:17:14;;;;;;;25.77;14.57;;;;;;;7.93;78.75;100365.28;5053880;28;20033;-38
2024/02/20 02:19:39;;;;;;;26.23;14.40;;;;;;;8.02;77.86;100366.91;5054174;28;20021;-40
2024/02/20 02:22:06;;;;;;;29.33;15.05;;;;;;;8.05;78.00;100369.19;5049787;28;20446;-38
2024/02/20 02:24:35;;;;;;;26.85;15.63;;;;;;;8.03;77.82;100371.19;5050010;28;20072;-40
2024/02/20 02:27:04;;;;;;;30.17;15.80;;;;;;;8.01;78.23;100374.03;5052302;28;20465;-38
2024/02/20 02:29:33;;;;;;;25.45;14.55;;;;;;;7.92;77.96;100371.56;5053927;28;20032;-37
2024/02/20 02:31:59;;;;;;;20.63;12.85;;;;;;;7.85;77.35;100368.78;5053759;28;20115;-39
2024/02/20 02:34:29;;;;;;;23.77;13.25;;;;;;;7.71;77.32;100365.00;5053687;28;20104;-41
2024/02/20 02:36:57;;;;;;;22.30;12.68;;;;;;;7.68;77.78;100367.16;5053590;28;20029;-38
2024/02/20 02:39:23;;;;;;;23.60;13.00;;;;;;;7.46;79.15;100373.97;5053756;28;20028;-38
2024/02/20 02:41:52;;;;;;;20.55;12.48;;;;;;;7.94;76.47;100377.50;5053441;28;20040;-37
2024/02/20 02:44:19;;;;;;;20.83;12.57;;;;;;;8.06;75.63;100370.03;5053569;28;20031;-37
2024/02/20 02:46:45;;;;;;;23.92;13.07;;;;;;;8.23;75.67;100369.78;5052797;28;20311;-39
2024/02/20 02:49:10;;;;;;;23.08;11.90;;;;;;;8.27;75.25;100372.91;5051398;28;20031;-37
2024/02/20 02:51:36;;;;;;;22.20;13.07;;;;;;;8.39;74.74;100373.34;5053342;28;20021;-39
2024/02/20 02:54:01;;;;;;;23.02;11.95;;;;;;;8.20;75.07;100370.13;5045176;28;20025;-40
2024/02/20 02:56:28;;;;;;;21.30;11.90;;;;;;;8.08;75.31;100378.66;5032119;28;20057;-38
2024/02/20 02:58:55;;;;;;;24.05;12.23;;;;;;;7.82;76.74;100379.69;5033216;28;20113;-40
2024/02/20 03:01:22;;;;;;;25.33;12.57;;;;;;;7.86;76.49;100366.94;5033006;28;20021;-40
2024/02/20 03:03:48;;;;;;;21.60;12.10;;;;;;;7.90;76.25;100376.19;5041354;28;20039;-40
2024/02/20 03:06:13;;;;;;;21.63;12.52;;;;;;;7.81;76.83;100368.28;5053021;28;20019;-39
2024/02/20 03:08:44;;;;;;;21.33;12.23;;;;;;;7.39;78.09;100371.19;5052623;28;20516;-39
2024/02/20 03:11:10;;;;;;;20.92;12.57;;;;;;;7.74;76.91;100377.91;5052323;28;20134;-39
2024/02/20 03:13:35;;;;;;;22.77;12.77;;;;;;;7.97;76.09;100372.69;5052380;28;20453;-39
2024/02/20 03:16:02;;;;;;;25.35;13.63;;;;;;;8.07;75.93;100376.97;5052314;28;20154;-37
2024/02/20 03:18:30;;;;;;;20.52;12.50;;;;;;;7.80;76.69;100376.41;5052571;28;20028;-40
2024/02/20 03:20:55;;;;;;;22.92;12.90;;;;;;;7.82;76.78;100380.56;5052728;28;20052;-39
2024/02/20 03:23:21;;;;;;;23.15;13.35;;;;;;;7.79;77.23;100378.22;5052694;28;20103;-39
2024/02/20 03:25:46;;;;;;;21.05;12.68;;;;;;;8.05;76.07;100381.63;5052370;28;20057;-38
2024/02/20 03:28:13;;;;;;;22.13;13.35;;;;;;;7.87;76.26;100372.09;5052697;28;20029;-39
2024/02/20 03:30:38;;;;;;;23.60;12.27;;;;;;;7.64;77.89;100387.88;5052393;28;20108;-39
2024/02/20 03:33:04;;;;;;;24.73;13.98;;;;;;;7.86;77.07;100382.84;5052784;28;20115;-37
2024/02/20 03:35:29;;;;;;;24.83;14.25;;;;;;;8.01;76.67;100376.69;5052651;28;20025;-37
2024/02/20 03:37:55;;;;;;;24.52;13.52;;;;;;;7.79;78.11;100388.84;5052512;28;20060;-28
2024/02/20 03:40:20;;;;;;;22.80;12.57;;;;;;;7.69;77.68;100388.22;5052782;28;20033;-40
2024/02/20 03:42:45;;;;;;;27.80;13.85;;;;;;;7.54;78.86;100390.72;5052492;28;20029;-40
2024/02/20 03:45:11;;;;;;;25.05;13.50;;;;;;;7.54;78.75;100389.84;5052242;28;20033;-38
2024/02/20 03:47:36;;;;;;;21.55;12.68;;;;;;;7.77;77.66;100382.06;5051926;28;20055;-36
2024/02/20 03:50:04;;;;;;;23.90;13.30;;;;;;;7.66;78.78;100385.88;5052032;28;20021;-38
2024/02/20 03:52:29;;;;;;;23.85;13.35;;;;;;;7.93;77.19;100375.88;5052382;28;20025;-40
2024/02/20 03:54:55;;;;;;;23.65;12.60;;;;;;;7.76;77.26;100378.56;5052012;28;20025;-26
2024/02/20 03:57:20;;;;;;;22.63;13.75;;;;;;;7.91;77.20;100383.16;5052499;28;20091;-26
2024/02/20 03:59:46;;;;;;;23.83;13.02;;;;;;;8.02;76.99;100388.94;5052486;28;20111;-26
2024/02/20 04:02:12;;;;;;;22.98;13.27;;;;;;;8.08;76.26;100383.94;5052333;28;20064;-26
2024/02/20 04:04:37;;;;;;;25.38;13.40;;;;;;;8.08;76.67;100387.41;5051571;28;20491;-26
2024/02/20 04:07:03;;;;;;;26.40;14.60;;;;;;;8.04;76.61;100386.09;5051724;28;20025;-26
2024/02/20 04:09:28;;;;;;;23.70;13.85;;;;;;;8.10;76.22;100376.66;5051450;28;20094;-26
2024/02/20 04:11:54;;;;;;;25.67;14.93;;;;;;;7.95;77.28;100395.91;5051628;28;20029;-26
2024/02/20 04:14:19;;;;;;;25.90;14.95;;;;;;;7.92;77.18;100392.75;5051619;28;20087;-26
2024/02/20 04:16:45;;;;;;;24.75;14.35;;;;;;;8.01;77.39;100397.03;5051887;28;20110;-27
2024/02/20 04:19:10;;;;;;;23.48;13.98;;;;;;;7.58;78.85;100389.38;5046198;28;20083;-26
2024/02/20 04:21:35;;;;;;;25.55;14.02;;;;;;;7.66;78.72;100393.81;5040479;28;20033;-27
2024/02/20 04:24:01;;;;;;;22.35;13.45;;;;;;;7.59;79.06;100398.97;5042779;28;20029;-26
2024/02/20 04:26:26;;;;;;;29.92;14.85;;;;;;;7.89;77.62;100395.78;5039583;28;20144;-26
2024/02/20 04:28:51;;;;;;;24.10;13.60;;;;;;;7.71;77.86;100391.50;5037296;28;20029;-26
2024/02/20 04:31:17;;;;;;;24.88;12.88;;;;;;;7.63;78.11;100387.06;5042624;28;20469;-26
2024/02/20 04:33:42;;;;;;;20.35;11.93;;;;;;;7.37;78.96;100389.91;5040352;28;20456;-26
2024/02/20 04:36:08;;;;;;;22.88;12.48;;;;;;;7.42;79.14;100387.59;5040198;28;20160;-26
2024/02/20 04:38:33;;;;;;;23.83;12.90;;;;;;;7.40;79.51;100394.03;5045564;28;20050;-27
2024/02/20 04:40:59;;;;;;;25.80;12.80;;;;;;;7.71;78.53;100395.97;5040052;28;20025;-26
2024/02/20 04:43:24;;;;;;;23.75;13.65;;;;;;;7.57;78.41;100389.53;5051211;28;20495;-26
2024/02/20 04:45:50;;;;;;;22.88;13.73;;;;;;;7.47;79.08;100379.13;5051052;28;20054;-26
2024/02/20 04:48:15;;;;;;;25.40;13.80;;;;;;;7.76;78.35;100388.34;5050801;28;20151;-26
2024/02/20 04:50:40;;;;;;;24.15;12.98;;;;;;;7.56;78.92;100388.72;5050785;28;20048;-26
2024/02/20 04:53:08;;;;;;;23.90;12.90;;;;;;;7.66;78.86;100387.72;5050861;28;20191;-27
2024/02/20 04:55:34;;;;;;;20.65;12.82;;;;;;;7.61;79.11;100382.91;5050775;28;20029;-26
2024/02/20 04:57:59;;;;;;;23.40;12.63;;;;;;;7.46;79.85;100396.00;5051267;28;20028;-26
2024/02/20 05:00:24;;;;;;;22.10;12.45;;;;;;;7.43;79.77;100391.06;5050947;28;20064;-26
2024/02/20 05:02:50;;;;;;;23.30;12.90;;;;;;;7.82;79.04;100391.16;5051174;28;20032;-27
2024/02/20 05:05:15;;;;;;;24.70;13.82;;;;;;;7.57;79.58;100397.47;5031191;28;20456;-27
2024/02/20 05:07:40;;;;;;;23.23;13.88;;;;;;;7.68;79.31;100401.63;5029750;28;20053;-26
2024/02/20 05:10:07;;;;;;;24.60;12.82;;;;;;;7.68;79.58;100396.31;5031580;28;20091;-27
2024/02/20 05:12:52;;;;;;;26.80;12.70;;;;;;;7.63;79.50;100396.81;5031037;28;20501;-26
2024/02/20 05:15:18;;;;;;;31.15;14.32;;;;;;;8.50;84.78;100396.06;5031009;28;20037;-26
2024/02/20 05:17:43;;;;;;;25.50;13.52;;;;;;;9.24;88.66;100400.88;5031071;28;20060;-26
2024/02/20 05:20:09;;;;;;;20.45;11.18;;;;;;;10.40;85.53;100399.50;5030978;28;20091;-27
2024/02/20 05:22:34;;;;;;;20.83;11.27;;;;;;;10.75;72.56;100400.50;5030951;28;20688;-27
2024/02/20 05:25:00;;;;;;;22.20;11.35;;;;;;;10.87;67.64;100400.00;5030687;28;20132;-28
2024/02/20 05:27:25;;;;;;;18.23;10.23;;;;;;;10.90;66.00;100407.63;5030517;28;20481;-27
2024/02/20 05:29:50;;;;;;;17.42;10.48;;;;;;;10.71;66.22;100396.56;5030241;28;20025;-27
2024/02/20 05:32:16;;;;;;;18.05;10.93;;;;;;;10.49;66.13;100414.38;5030781;28;20454;-27
2024/02/20 05:34:42;;;;;;;16.77;10.43;;;;;;;10.36;66.92;100408.88;5030138;28;20025;-26
2024/02/20 05:37:07;;;;;;;17.52;10.38;;;;;;;10.28;66.62;100414.25;5030364;28;20412;-26
2024/02/20 05:39:32;;;;;;;19.88;10.65;;;;;;;10.16;67.32;100417.38;5030471;28;20124;-27
2024/02/20 05:41:58;;;;;;;16.23;9.85;;;;;;;10.03;67.48;100416.38;5030083;28;20033;-27
2024/02/20 05:44:23;;;;;;;17.00;10.57;;;;;;;10.17;67.30;100421.69;5030143;28;20029;-26
2024/02/20 05:46:49;;;;;;;18.85;10.75;;;;;;;10.17;67.00;100421.69;5030460;28;20053;-27
2024/02/20 05:49:15;;;;;;;18.25;10.98;;;;;;;10.03;67.57;100411.88;5030100;28;20095;-27
2024/02/20 05:51:40;;;;;;;16.25;11.15;;;;;;;10.17;67.26;100421.69;5040449;28;20033;-27
2024/02/20 05:54:06;;;;;;;18.27;11.02;;;;;;;9.98;68.15;100433.72;5050558;28;20031;-27
2024/02/20 05:56:32;;;;;;;17.60;11.18;;;;;;;9.97;67.70;100431.22;5050451;28;20029;-27
2024/02/20 05:58:57;;;;;;;21.10;11.57;;;;;;;10.07;68.18;100428.28;5037843;28;20025;-27
2024/02/20 06:01:23;;;;;;;20.95;11.52;;;;;;;10.11;67.68;100432.22;5042723;28;20079;-27
2024/02/20 06:03:48;;;;;;;18.75;10.90;;;;;;;10.00;68.32;100425.56;5041613;28;20025;-27
2024/02/20 06:06:14;;;;;;;19.10;11.48;;;;;;;9.97;67.92;100436.53;5038598;28;20469;-27
2024/02/20 06:08:47;;;;;;;19.45;10.60;;;;;;;10.00;68.24;100433.53;5039776;28;20036;-27
2024/02/20 06:11:13;;;;;;;18.27;10.73;;;;;;;10.08;68.27;100438.75;5039712;28;20337;-26
2024/02/20 06:13:38;;;;;;;19.70;10.80;;;;;;;9.98;68.61;100439.03;5040073;28;20485;-27
2024/02/20 06:16:04;;;;;;;20.67;11.93;;;;;;;10.23;67.14;100437.94;5043210;28;20021;-27
2024/02/20 06:18:29;;;;;;;18.73;10.77;;;;;;;10.22;67.14;100439.75;5049415;28;20029;-27
2024/02/20 06:20:54;;;;;;;20.35;10.82;;;;;;;10.30;66.69;100441.50;5050588;28;20385;-28
2024/02/20 06:23:20;;;;;;;20.70;11.15;;;;;;;10.02;67.51;100441.34;5045994;28;20013;-27
2024/02/20 06:25:46;;;;;;;21.05;11.48;;;;;;;10.07;67.90;100438.94;5043023;28;20072;-28
2024/02/20 06:28:14;;;;;;;16.10;11.00;;;;;;;9.52;69.94;100446.28;5045525;28;20350;-28
2024/02/20 06:30:40;;;;;;;20.55;11.75;;;;;;;9.76;69.50;100443.41;5038792;28;20040;-28
2024/02/20 06:33:05;;;;;;;17.15;11.52;;;;;;;9.87;69.22;100450.09;5045869;28;20029;-27
2024/02/20 06:35:31;;;;;;;23.63;11.73;;;;;;;9.93;68.72;100445.91;5047972;28;20402;-27
2024/02/20 06:37:57;;;;;;;26.20;14.38;;;;;;;9.45;70.84;100446.19;5046181;28;20097;-27
2024/02/20 06:40:22;;;;;;;18.27;11.63;;;;;;;8.62;74.38;100460.97;5042570;28;20029;-27
2024/02/20 06:42:48;;;;;;;18.25;12.20;;;;;;;8.96;73.66;100444.69;5039860;28;20095;-27
2024/02/20 06:45:14;;;;;;;19.27;11.55;;;;;;;9.23;72.54;100453.13;5045086;28;20029;-27
2024/02/20 06:47:41;;;;;;;20.90;12.38;;;;;;;9.64;70.95;100449.34;5045220;28;20022;-25
2024/02/20 06:50:08;;;;;;;16.80;11.40;;;;;;;9.80;69.97;100459.81;5044182;28;20021;-27
2024/02/20 06:52:35;;;;;;;19.90;12.52;;;;;;;10.04;68.61;100465.91;5042346;28;20025;-28
2024/02/20 06:55:00;;;;;;;22.75;13.25;;;;;;;9.96;69.06;100459.66;5043915;28;20030;-28
2024/02/20 06:57:25;;;;;;;18.40;12.00;;;;;;;9.91;68.22;100467.34;5046915;28;20023;-38
2024/02/20 06:59:51;;;;;;;18.95;11.80;;;;;;;9.69;69.50;100454.94;5044190;28;20014;-40
2024/02/20 07:02:16;;;;;;;25.88;12.38;;;;;;;9.80;69.72;100459.81;5044404;28;20039;-40
2024/02/20 07:04:41;;;;;;;19.80;12.65;;;;;;;9.82;69.98;100462.28;5046508;28;20037;-41
2024/02/20 07:07:07;;;;;;;20.77;12.93;;;;;;;9.86;69.45;100468.91;5043764;28;20649;-40
2024/02/20 07:09:32;;;;;;;23.20;12.90;;;;;;;9.84;69.75;100460.28;5042718;28;20460;-41
2024/02/20 07:11:57;;;;;;;21.90;12.07;;;;;;;9.77;70.13;100461.00;5043002;28;20079;-39
2024/02/20 07:14:23;;;;;;;21.08;11.77;;;;;;;9.57;70.82;100459.84;5040376;28;20025;-42
2024/02/20 07:16:49;;;;;;;21.55;12.73;;;;;;;9.91;71.71;100466.53;5043995;28;20033;-40
2024/02/20 07:19:14;;;;;;;21.02;12.73;;;;;;;9.98;70.61;100468.28;5044286;28;20041;-42
2024/02/20 07:21:39;;;;;;;24.40;12.15;;;;;;;9.77;70.95;100468.97;5037298;28;20021;-40
2024/02/20 07:24:05;;;;;;;20.30;11.90;;;;;;;9.81;70.19;100464.13;5030851;28;20092;-40
2024/02/20 07:26:30;;;;;;;20.55;11.73;;;;;;;9.65;71.19;100470.41;5031366;28;20388;-42
2024/02/20 07:28:56;;;;;;;19.77;12.15;;;;;;;9.57;71.44;100457.19;5031422;28;20071;-41
2024/02/20 07:31:25;;;;;;;17.08;11.55;;;;;;;9.69;71.46;100466.41;5031423;28;20025;-41
2024/02/20 07:33:52;;;;;;;20.02;12.10;;;;;;;9.54;72.48;100460.22;5031113;28;20083;-38
2024/02/20 07:36:17;;;;;;;18.75;11.32;;;;;;;9.46;71.91;100466.44;5031873;28;20027;-40
2024/02/20 07:38:43;;;;;;;18.77;11.77;;;;;;;9.70;71.77;100462.72;5031938;28;20021;-40
2024/02/20 07:41:09;;;;;;;20.10;11.27;;;;;;;9.83;72.00;100456.81;5030226;28;20032;-40
2024/02/20 07:43:36;;;;;;;22.73;12.10;;;;;;;10.05;70.52;100460.41;5030885;28;20104;-42
2024/02/20 07:46:01;;;;;;;19.55;11.80;;;;;;;10.09;70.39;100464.34;5030753;28;20469;-40
2024/02/20 07:48:27;;;;;;;18.27;11.38;;;;;;;9.96;70.64;100462.31;5030777;28;20033;-40
2024/02/20 07:50:52;;;;;;;18.60;10.90;;;;;;;9.79;70.67;100469.63;5031034;28;20036;-40
2024/02/20 07:53:17;;;;;;;19.05;11.38;;;;;;;9.85;71.09;100462.75;5031306;28;20536;-42
2024/02/20 07:55:43;;;;;;;18.85;11.60;;;;;;;10.02;70.99;100466.09;5031480;28;20099;-40
2024/02/20 07:58:08;;;;;;;18.83;12.25;;;;;;;10.11;70.55;100448.19;5031262;28;20033;-40
2024/02/20 08:00:34;;;;;;;21.40;12.13;;;;;;;10.08;70.64;100460.03;5031530;28;20040;-41
2024/02/20 08:03:00;;;;;;;19.63;11.65;;;;;;;10.31;70.21;100467.13;5031370;28;20081;-41
2024/02/20 08:05:27;;;;;;;18.67;11.82;;;;;;;10.23;69.47;100460.03;5031665;28;20029;-39
2024/02/20 08:07:53;;;;;;;20.77;12.00;;;;;;;9.88;70.85;100456.25;5031641;28;20116;-42
2024/02/20 08:10:19;;;;;;;18.98;12.48;;;;;;;9.95;70.92;100460.66;5031571;28;20025;-43
2024/02/20 08:12:44;;;;;;;17.40;11.30;;;;;;;10.06;70.44;100459.38;5031881;28;20022;-40
2024/02/20 08:15:10;;;;;;;19.83;11.63;;;;;;;10.16;70.37;100464.44;5031832;28;20445;-43
2024/02/20 08:17:36;;;;;;;24.15;13.02;;;;;;;10.31;70.43;100461.81;5031785;28;20029;-41
2024/02/20 08:20:04;;;;;;;23.15;12.13;;;;;;;10.09;71.43;100463.50;5031334;28;20029;-41
2024/02/20 08:22:29;;;;;;;20.10;11.93;;;;;;;10.35;70.46;100469.22;5032022;28;20022;-40
2024/02/20 08:24:56;;;;;;;25.33;12.43;;;;;;;10.29;69.74;100459.28;5031035;28;20056;-27
2024/02/20 08:27:24;;;;;;;20.90;12.45;;;;;;;10.29;69.98;100463.81;5030753;28;20148;-28
2024/02/20 08:29:50;;;;;;;21.90;12.45;;;;;;;10.23;70.39;100465.34;5030886;28;20017;-27
2024/02/20 08:32:16;;;;;;;22.50;12.63;;;;;;;10.33;70.07;100462.44;5030801;28;20028;-27
2024/02/20 08:34:42;;;;;;;19.95;12.88;;;;;;;10.22;70.36;100465.53;5031174;28;20029;-27
2024/02/20 08:37:08;;;;;;;22.70;12.57;;;;;;;10.44;69.75;100464.66;5030811;28;20044;-27
2024/02/20 08:39:33;;;;;;;22.42;13.43;;;;;;;10.45;70.47;100466.31;5031166;28;20397;-27
2024/02/20 08:41:58;;;;;;;20.15;13.27;;;;;;;10.14;71.06;100469.94;5031224;28;20104;-27
2024/02/20 08:44:24;;;;;;;20.58;13.38;;;;;;;10.06;71.41;100478.00;5030631;28;20021;-27
2024/02/20 08:46:49;;;;;;;22.92;13.43;;;;;;;10.12;71.53;100474.59;5030146;28;20104;-28
2024/02/20 08:49:15;;;;;;;23.65;13.38;;;;;;;10.33;70.10;100479.22;5030087;28;20025;-29
2024/02/20 08:51:40;;;;;;;18.83;12.60;;;;;;;10.49;69.68;100475.56;5030277;28;20100;-28
2024/02/20 08:54:05;;;;;;;22.23;13.18;;;;;;;10.91;69.03;100478.53;5029454;28;20049;-29
2024/02/20 08:56:31;;;;;;;23.40;13.68;;;;;;;10.84;68.42;100486.44;5030459;28;20480;-28
2024/02/20 08:58:56;;;;;;;22.27;13.50;;;;;;;10.89;68.53;100481.38;5048216;28;20084;-28
2024/02/20 09:01:24;;;;;;;22.83;12.65;;;;;;;10.98;67.60;100489.25;5050901;28;20023;-28
2024/02/20 09:03:51;;;;;;;23.95;13.32;;;;;;;11.10;68.14;100485.06;5050772;28;20017;-28
2024/02/20 09:06:17;;;;;;;23.05;13.95;;;;;;;10.87;68.28;100491.41;5050031;28;20023;-31
2024/02/20 09:08:42;;;;;;;24.25;13.88;;;;;;;10.88;68.03;100485.03;5050143;28;20029;-30
2024/02/20 09:11:08;;;;;;;27.35;13.75;;;;;;;10.68;69.18;100490.16;5050346;28;20020;-28
2024/02/20 09:13:34;;;;;;;22.13;13.90;;;;;;;10.75;69.19;100491.03;5049954;28;20515;-28
2024/02/20 09:15:59;;;;;;;24.95;14.80;;;;;;;10.92;68.58;100494.31;5050494;28;20079;-26
2024/02/20 09:18:25;;;;;;;23.75;14.20;;;;;;;10.85;69.14;100495.22;5050709;28;20025;-27
2024/02/20 09:20:51;;;;;;;22.58;14.30;;;;;;;11.12;67.96;100491.06;5050761;28;20086;-28
2024/02/20 09:23:16;;;;;;;26.45;15.45;;;;;;;11.05;67.78;100488.31;5050480;28;20033;-28
2024/02/20 09:25:43;;;;;;;26.67;14.57;;;;;;;10.86;69.34;100488.91;5049792;28;20126;-28
2024/02/20 09:28:09;;;;;;;23.25;14.23;;;;;;;10.98;68.74;100482.06;5049918;28;20032;-29
2024/02/20 09:30:35;;;;;;;21.70;13.90;;;;;;;10.93;68.55;100490.63;5048503;28;20413;-28
2024/02/20 09:33:00;;;;;;;22.17;13.65;;;;;;;10.49;71.54;100488.03;5048647;28;20025;-27
2024/02/20 09:35:26;;;;;;;23.02;13.02;;;;;;;10.17;72.80;100488.19;5045128;28;20090;-29
2024/02/20 09:37:51;;;;;;;24.83;13.75;;;;;;;10.64;70.47;100486.22;5041833;28;20087;-29
2024/02/20 09:40:19;;;;;;;19.73;13.15;;;;;;;10.78;70.86;100481.88;5050203;28;20032;-28
2024/02/20 09:42:48;;;;;;;18.95;12.50;;;;;;;10.84;69.43;100483.78;5049862;28;20024;-28
2024/02/20 09:45:18;;;;;;;19.87;13.13;;;;;;;11.17;69.93;100485.97;5050026;28;20040;-27
2024/02/20 09:47:45;;;;;;;21.50;12.82;;;;;;;11.14;71.08;100478.38;5049969;28;20274;-28
2024/02/20 09:50:12;;;;;;;24.80;13.63;;;;;;;11.18;69.15;100478.81;5036435;28;20089;-28
2024/02/20 09:52:41;;;;;;;25.10;13.73;;;;;;;11.31;70.10;100474.44;5050075;28;20162;-29
2024/02/20 09:55:08;;;;;;;20.55;12.90;;;;;;;11.55;68.87;100467.88;5049466;28;20481;-30
2024/02/20 09:57:34;;;;;;;21.55;13.70;;;;;;;11.40;70.10;100467.13;5049673;28;20124;-28
2024/02/20 09:59:59;;;;;;;22.90;14.27;;;;;;;11.30;69.48;100470.09;5049913;28;20512;-30
2024/02/20 10:02:28;;;;;;;21.17;13.48;;;;;;;11.14;70.34;100470.38;5050665;28;20033;-29
2024/02/20 10:04:54;;;;;;;23.48;13.65;;;;;;;11.57;68.60;100467.69;5051753;28;20121;-28
2024/02/20 10:07:20;;;;;;;23.67;13.93;;;;;;;11.62;68.33;100461.78;5054048;28;20066;-29
2024/02/20 10:09:45;;;;;;;19.90;12.05;;;;;;;11.74;67.13;100463.72;5044610;28;20036;-30
2024/02/20 10:12:21;;;;;;;22.70;12.50;;;;;;;12.09;66.19;100461.13;5054612;28;20028;-28
2024/02/20 10:14:46;;;;;;;19.70;12.00;;;;;;;11.97;65.39;100456.53;5054651;28;20025;-29
2024/02/20 10:17:14;;;;;;;20.17;12.82;;;;;;;11.76;66.90;100452.03;5054506;28;20056;-28
2024/02/20 10:19:39;;;;;;;21.42;12.20;;;;;;;12.21;65.53;100460.59;5047530;28;20033;-27
2024/02/20 10:22:04;;;;;;;20.13;11.95;;;;;;;12.36;63.26;100445.28;5048961;28;20055;-30
2024/02/20 10:24:30;;;;;;;19.75;11.93;;;;;;;11.91;64.99;100452.81;5033204;28;20049;-28
2024/02/20 10:26:55;;;;;;;21.20;11.85;;;;;;;11.96;65.71;100438.91;5048293;28;20104;-29
2024/02/20 10:29:21;;;;;;;20.05;11.50;;;;;;;11.72;66.20;100441.75;5053392;28;20452;-28
2024/02/20 10:31:46;;;;;;;19.30;11.93;;;;;;;11.57;68.22;100435.69;5053093;28;20024;-28
2024/02/20 10:34:19;;;;;;;17.58;11.40;;;;;;;12.01;67.11;100431.09;5052332;28;20118;-27
2024/02/20 10:36:45;;;;;;;23.77;10.93;;;;;;;12.19;65.35;100428.75;5033346;28;20026;-31
2024/02/20 10:39:10;;;;;;;18.42;11.50;;;;;;;11.85;66.36;100424.22;5033223;28;20052;-29
2024/02/20 10:41:36;;;;;;;21.52;12.30;;;;;;;11.79;66.72;100417.00;5032817;28;20036;-28
2024/02/20 10:44:02;;;;;;;18.77;12.10;;;;;;;12.23;64.78;100429.19;5032911;28;20099;-28
2024/02/20 10:46:32;;;;;;;19.80;13.10;;;;;;;12.78;63.79;100416.69;5032912;28;20021;-27
2024/02/20 10:49:02;;;;;;;22.35;12.80;;;;;;;12.56;63.39;100426.66;5032905;28;20025;-27
2024/02/20 10:51:28;;;;;;;25.77;14.13;;;;;;;12.81;63.12;100404.75;5032806;28;20481;-26
2024/02/20 10:53:55;;;;;;;27.10;13.40;;;;;;;13.32;61.80;100411.44;5033180;28;20037;-28
2024/02/20 10:56:21;;;;;;;19.60;12.07;;;;;;;13.37;60.59;100409.00;5032948;28;20036;-29
2024/02/20 10:58:49;;;;;;;24.77;13.07;;;;;;;13.41;60.13;100396.84;5033151;28;20049;-29
2024/02/20 11:01:15;;;;;;;19.77;12.77;;;;;;;13.78;59.88;100389.19;5033334;28;20033;-29
2024/02/20 11:03:41;;;;;;;26.15;14.48;;;;;;;13.54;60.33;100388.00;5033105;28;20025;-28
2024/02/20 11:06:08;;;;;;;25.08;14.32;;;;;;;13.26;60.61;100380.97;5032317;28;20469;-29
2024/02/20 11:08:34;;;;;;;26.98;15.90;;;;;;;13.55;59.40;100382.44;5032707;28;20025;-29